Time;durP1;ratioP1;P1;durP2;ratioP2;P2;SDS_P1;SDS_P2;PMS_P1;PMS_P2;Temp;Humidity;BMP_temperature;BMP_pressure;BME280_temperature;BME280_humidity;BME280_pressure;Samples;Min_cycle;Max_cycle;Signal;HPM_P1;HPM_P2
2022/01/21 00:04:41;;;;;;;;;;;;;;;;;;;;;
2022/01/21 00:09:48;;;;;;;12.73;3.13;;;;;;;-3.86;100.00;102628.53;9849845;30;20047;-92
2022/01/21 00:14:54;;;;;;;15.77;2.33;;;;;;;-6.29;100.00;102311.53;9833089;30;20071;-90
2022/01/21 00:30:07;;;;;;;17.97;2.77;;;;;;;-3.68;100.00;102817.38;9815031;30;20135;-89
2022/01/21 00:36:09;;;;;;;9.37;1.97;;;;;;;-6.44;100.00;102334.06;9863253;30;20055;-90
2022/01/21 00:41:21;;;;;;;13.03;2.97;;;;;;;-5.47;100.00;102286.81;9846444;30;20409;-93
2022/01/21 00:46:42;;;;;;;11.85;2.65;;;;;;;-6.89;100.00;102079.22;9847575;30;20054;-93
2022/01/21 00:52:23;;;;;;;12.50;1.90;;;;;;;-5.89;100.00;102437.38;9843826;30;20035;-93
2022/01/21 00:57:28;;;;;;;13.77;2.50;;;;;;;-6.91;100.00;101992.78;9849425;30;20057;-89
2022/01/21 01:02:41;;;;;;;21.13;3.43;;;;;;;-4.83;100.00;102427.94;9820423;30;20414;-88
2022/01/21 01:07:55;;;;;;;19.90;2.33;;;;;;;-9.14;100.00;101944.97;9835610;30;20059;-89
2022/01/21 01:30:13;;;;;;;13.77;2.27;;;;;;;-6.70;100.00;102251.03;9810824;30;20138;-93
2022/01/21 01:35:20;;;;;;;21.33;3.60;;;;;;;-3.49;100.00;102731.59;9804932;30;20042;-88
2022/01/21 01:40:56;;;;;;;12.07;2.77;;;;;;;-5.92;100.00;102314.22;9829361;30;20051;-89
2022/01/21 01:52:17;;;;;;;;;;;;;;;;;;;;;
2022/01/21 01:57:51;;;;;;;14.30;2.80;;;;;;;-5.11;100.00;102280.47;9789696;30;20062;-92
2022/01/21 02:02:52;;;;;;;14.37;2.03;;;;;;;-2.39;100.00;102891.16;9828224;30;20070;-91
2022/01/21 02:08:01;;;;;;;19.67;2.20;;;;;;;-4.75;100.00;102439.81;9819342;30;20051;-92
2022/01/21 02:13:17;;;;;;;21.20;4.13;;;;;;;-4.51;100.00;102538.38;9819649;30;20105;-93
2022/01/21 02:23:39;;;;;;;12.33;2.43;;;;;;;-4.94;100.00;102305.16;9843895;30;20059;-88
2022/01/21 02:28:42;;;;;;;13.77;1.97;;;;;;;-7.47;100.00;101842.63;9838735;30;20043;-88
2022/01/21 02:33:51;;;;;;;10.13;2.00;;;;;;;-2.15;100.00;102874.91;9802662;30;20040;-88
2022/01/21 02:38:51;;;;;;;14.77;2.73;;;;;;;-7.58;100.00;101897.75;9803042;30;20094;-88
2022/01/21 02:43:55;;;;;;;15.47;2.40;;;;;;;-2.79;100.00;102894.25;9817502;30;20067;-88
2022/01/21 02:49:00;;;;;;;12.05;2.15;;;;;;;-4.32;100.00;102565.63;9825027;30;20512;-88
2022/01/21 02:54:06;;;;;;;11.60;1.77;;;;;;;-6.77;100.00;102222.94;9829697;30;20524;-92
2022/01/21 02:59:07;;;;;;;21.80;2.50;;;;;;;-4.43;100.00;102589.75;9835500;30;20039;-92
2022/01/21 03:04:11;;;;;;;11.57;1.30;;;;;;;-9.39;100.00;101808.88;9832939;30;20113;-91
2022/01/21 03:09:12;;;;;;;10.57;1.80;;;;;;;-4.38;100.00;102434.34;9848606;30;20044;-91
2022/01/21 03:14:13;;;;;;;11.20;2.00;;;;;;;-5.46;100.00;102350.22;9863350;30;20490;-92
2022/01/21 03:19:16;;;;;;;10.30;1.30;;;;;;;-7.33;100.00;102131.41;9862960;30;20040;-92
2022/01/21 03:24:16;;;;;;;11.07;2.20;;;;;;;-3.00;100.00;102813.16;9832227;30;20553;-92
2022/01/21 03:29:17;;;;;;;10.07;1.63;;;;;;;-2.49;100.00;102892.84;9832288;30;20050;-92
2022/01/21 03:34:29;;;;;;;9.93;1.83;;;;;;;-8.96;100.00;101716.09;9832676;30;20073;-92
2022/01/21 03:39:32;;;;;;;10.70;1.87;;;;;;;-4.27;100.00;102428.97;9844547;30;20040;-88
2022/01/21 03:44:42;;;;;;;7.07;1.57;;;;;;;-0.85;100.00;102928.25;9858543;30;20422;-90
2022/01/21 03:49:53;;;;;;;10.87;1.23;;;;;;;-5.13;100.00;102346.84;9860038;30;20482;-89
2022/01/21 03:55:21;;;;;;;10.97;1.63;;;;;;;-6.06;100.00;102247.34;9859946;30;20035;-90
2022/01/21 04:00:27;;;;;;;9.67;2.37;;;;;;;-1.69;100.00;102943.25;9845774;30;20105;-89
2022/01/21 04:05:35;;;;;;;14.97;2.57;;;;;;;-8.66;100.00;101650.00;9849684;30;20039;-89
2022/01/21 04:10:59;;;;;;;12.10;1.50;;;;;;;-2.20;100.00;102946.38;9837999;30;20094;-90
2022/01/21 04:16:05;;;;;;;11.63;1.27;;;;;;;-4.92;100.00;102470.66;9830133;30;20051;-89
2022/01/21 04:21:11;;;;;;;7.77;1.73;;;;;;;-6.75;100.00;102186.19;9859421;30;20520;-90
2022/01/21 04:26:25;;;;;;;20.77;3.55;;;;;;;-8.47;100.00;101847.09;9843474;30;20545;-89
2022/01/21 04:31:26;;;;;;;14.03;2.37;;;;;;;-6.22;100.00;102010.88;9845868;30;20139;-93
2022/01/21 04:36:39;;;;;;;16.80;2.07;;;;;;;-4.55;100.00;102457.09;9844764;30;20032;-90
2022/01/21 04:52:11;;;;;;;9.07;1.40;;;;;;;-6.51;100.00;102038.03;9859019;30;20274;-93
2022/01/21 04:57:16;;;;;;;;;;;;;;;0.17;100.00;103101.03;9831611;30;20041;-93
2022/01/21 05:02:35;;;;;;;9.00;1.33;;;;;;;-4.26;100.00;102428.00;9845062;30;19917;-89
2022/01/21 05:07:43;;;;;;;12.48;1.42;;;;;;;-6.08;100.00;102045.53;9843747;30;20039;-89
2022/01/21 05:13:07;;;;;;;10.27;1.73;;;;;;;-6.82;100.00;102008.19;9846336;30;20039;-89
2022/01/21 05:18:10;;;;;;;11.33;1.20;;;;;;;-8.02;100.00;101685.34;9820350;30;20063;-92
2022/01/21 05:23:13;;;;;;;15.77;2.37;;;;;;;-2.15;100.00;102868.63;9818553;30;20390;-92
2022/01/21 05:28:30;;;;;;;6.97;1.50;;;;;;;-6.34;100.00;102281.53;9842977;30;20142;-92
2022/01/21 05:34:13;;;;;;;19.90;4.03;;;;;;;-3.86;100.00;102591.72;9860594;30;20070;-93
2022/01/21 05:39:22;;;;;;;7.28;1.00;;;;;;;-5.22;100.00;102194.53;9844431;30;20397;-90
2022/01/21 05:49:41;;;;;;;12.03;1.43;;;;;;;-6.19;100.00;102310.88;9828607;30;20054;-89
2022/01/21 05:54:45;;;;;;;15.83;1.93;;;;;;;-4.68;100.00;102488.59;9827640;30;20050;-89
2022/01/21 05:59:49;;;;;;;11.93;1.70;;;;;;;-6.49;100.00;102014.66;9826829;30;20497;-89
2022/01/21 06:05:19;;;;;;;12.23;3.57;;;;;;;-2.46;100.00;102676.81;9806531;30;20048;-89
2022/01/21 06:10:30;;;;;;;11.18;1.58;;;;;;;-4.51;100.00;102613.66;9808809;30;20043;-89
2022/01/21 06:15:41;;;;;;;11.67;2.03;;;;;;;-4.34;100.00;102454.63;9818125;30;20042;-93
2022/01/21 06:20:59;;;;;;;;;;;;;;;;;;;;;
2022/01/21 06:26:06;;;;;;;13.60;3.33;;;;;;;-7.55;100.00;102090.09;9842676;30;20354;-92
2022/01/21 06:31:16;;;;;;;18.13;3.87;;;;;;;-6.62;100.00;102320.09;9842594;30;20048;-92
2022/01/21 06:36:34;;;;;;;12.60;2.60;;;;;;;-1.24;100.00;102951.31;9841884;30;20038;-92
2022/01/21 06:41:48;;;;;;;16.53;3.67;;;;;;;-8.86;100.00;101729.69;9855804;30;20105;-89
2022/01/21 06:47:01;;;;;;;;;;;;;;;;;;;;;
2022/01/21 06:52:22;;;;;;;17.90;2.10;;;;;;;-7.97;100.00;101950.44;9841726;30;20043;-90
2022/01/21 06:57:33;;;;;;;20.20;3.83;;;;;;;-8.07;100.00;102037.53;9840750;30;20482;-92
2022/01/21 07:02:39;;;;;;;9.67;1.90;;;;;;;-1.98;100.00;102797.97;9827652;30;20055;-92
2022/01/21 07:08:00;;;;;;;9.93;2.33;;;;;;;-5.10;100.00;102455.88;9842368;30;20131;-90
2022/01/21 07:13:57;;;;;;;;;;;;;;;;;;;;;
2022/01/21 07:19:01;;;;;;;15.83;3.27;;;;;;;-5.07;100.00;102263.13;9854730;30;20043;-93
2022/01/21 07:24:04;;;;;;;14.37;1.93;;;;;;;-2.83;100.00;102620.50;9840824;30;20414;-89
2022/01/21 07:29:26;;;;;;;20.17;2.33;;;;;;;-2.57;100.00;102966.25;9839968;30;20048;-89
2022/01/21 07:34:50;;;;;;;11.57;1.87;;;;;;;-4.98;100.00;102529.31;9838982;30;20050;-93
2022/01/21 07:40:13;;;;;;;21.27;2.50;;;;;;;-4.26;100.00;102511.38;9860880;30;20051;-92
2022/01/21 07:45:50;;;;;;;13.05;3.22;;;;;;;-4.28;100.00;102477.50;9846254;30;20134;-90
2022/01/21 07:51:02;;;;;;;15.27;2.00;;;;;;;-6.00;100.00;102356.84;9761950;30;20047;-96
2022/01/21 07:56:05;;;;;;;10.90;2.03;;;;;;;-5.45;100.00;102262.53;9824324;30;20048;-93
2022/01/21 08:01:15;;;;;;;14.40;2.10;;;;;;;-2.51;100.00;102770.75;9861885;30;20481;-93
2022/01/21 08:07:03;;;;;;;;;;;;;;;;;;;;;
2022/01/21 08:12:21;;;;;;;20.97;1.90;;;;;;;-5.26;100.00;102469.56;9861845;30;20036;-90
2022/01/21 08:17:31;;;;;;;13.50;3.97;;;;;;;-6.99;100.00;102228.09;9845132;30;20043;-90
2022/01/21 08:23:22;;;;;;;;;;;;;;;;;;;;;
2022/01/21 08:29:04;;;;;;;;;;;;;;;;;;;;;
2022/01/21 08:35:25;;;;;;;;;;;;;;;;;;;;;
2022/01/21 08:41:28;;;;;;;;;;;;;;;;;;;;;
2022/01/21 08:54:06;;;;;;;;;;;;;;;;;;;;;
2022/01/21 08:59:30;;;;;;;12.40;2.73;;;;;;;-6.16;100.00;101968.41;9857989;30;20039;-90
2022/01/21 09:12:01;;;;;;;;;;;;;;;;;;;;;
2022/01/21 09:17:18;;;;;;;;;;;;;;;;;;;;;
2022/01/21 09:22:34;;;;;;;25.48;4.15;;;;;;;1.73;100.00;103311.66;9815186;30;20043;-88
2022/01/21 09:27:58;;;;;;;22.33;3.90;;;;;;;-2.54;100.00;102564.22;9842171;30;20088;-93
2022/01/21 09:33:13;;;;;;;20.53;3.20;;;;;;;-4.04;100.00;102224.56;9850942;30;20051;-93
2022/01/21 09:38:26;;;;;;;15.73;3.40;;;;;;;-2.39;100.00;102690.69;9828150;30;20046;-90
2022/01/21 09:43:30;;;;;;;20.20;3.50;;;;;;;-3.83;100.00;102323.34;9841282;30;20042;-90
2022/01/21 09:49:06;;;;;;;21.73;3.00;;;;;;;-2.04;100.00;102525.88;9842674;30;20409;-93
2022/01/21 09:54:32;;;;;;;;;;;;;;;;;;;;;
2022/01/21 10:20:21;;;;;;;;;;;;;;;;;;;;;
2022/01/21 10:25:44;;;;;;;17.77;2.60;;;;;;;-2.90;100.00;102252.75;9718794;30;20057;-92
2022/01/21 10:30:50;;;;;;;19.88;2.20;;;;;;;2.78;100.00;103125.38;9707136;30;20195;-93
2022/01/21 10:36:24;;;;;;;29.95;3.17;;;;;;;-1.37;100.00;102678.56;9696931;30;20207;-93
2022/01/21 10:42:01;;;;;;;11.68;2.33;;;;;;;-4.62;100.00;102154.03;9746317;30;20056;-89
2022/01/21 10:53:34;;;;;;;18.80;3.03;;;;;;;3.05;100.00;103285.13;9816527;30;20126;-91
2022/01/21 10:58:39;;;;;;;13.18;2.92;;;;;;;-0.89;100.00;102606.81;9809537;30;20060;-86
2022/01/21 11:03:58;;;;;;;14.25;2.20;;;;;;;-2.82;100.00;102201.72;9855059;30;20051;-93
2022/01/21 11:09:28;;;;;;;11.27;1.80;;;;;;;3.62;100.00;103157.13;9855277;30;20055;-89
2022/01/21 11:14:29;;;;;;;20.92;2.72;;;;;;;1.32;100.00;102957.91;9842600;30;20134;-88
2022/01/21 11:19:34;;;;;;;45.35;4.45;;;;;;;-0.56;100.00;102588.56;9816424;30;20042;-88
2022/01/21 11:24:34;;;;;;;20.48;4.03;;;;;;;-3.06;100.00;102146.31;9797649;30;20058;-90
2022/01/21 11:29:35;;;;;;;14.20;2.20;;;;;;;-0.81;100.00;102506.94;9845625;30;20457;-89
2022/01/21 11:35:26;;;;;;;25.15;3.47;;;;;;;-3.28;100.00;102238.88;9846464;30;20054;-92
2022/01/21 11:40:59;;;;;;;17.50;2.78;;;;;;;1.70;100.00;102955.34;9751958;30;20084;-91
2022/01/21 11:52:31;;;;;;;;;;;;;;;4.21;100.00;103131.13;9735838;30;20049;-92
2022/01/21 11:57:42;;;;;;;14.20;2.80;;;;;;;-0.15;100.00;102529.78;9714297;30;19987;-90
2022/01/21 12:03:03;;;;;;;15.75;3.65;;;;;;;-0.27;100.00;102546.19;9705452;30;20060;-95
2022/01/21 12:08:47;;;;;;;32.45;3.65;;;;;;;4.32;100.00;103110.09;9704696;30;20052;-85
2022/01/21 12:13:52;;;;;;;15.82;2.83;;;;;;;-0.15;100.00;102446.72;9793348;30;20127;-92
2022/01/21 12:20:06;;;;;;;;;;;;;;;;;;;;;
2022/01/21 13:03:22;;;;;;;;;;;;;;;;;;;;;
2022/01/21 13:09:12;;;;;;;15.77;3.28;;;;;;;5.13;100.00;103070.72;9829924;30;20076;-94
2022/01/21 13:27:21;;;;;;;11.98;1.73;;;;;;;1.19;100.00;102626.34;9903646;29;20052;-92
2022/01/21 13:32:24;;;;;;;8.85;1.90;;;;;;;2.97;100.00;102817.81;9827980;30;20134;-94
2022/01/21 13:37:25;;;;;;;11.73;1.98;;;;;;;0.54;100.00;102399.44;9811446;30;20043;-86
2022/01/21 13:42:27;;;;;;;13.52;1.95;;;;;;;2.76;100.00;102760.16;9842377;30;20047;-92
2022/01/21 13:47:42;;;;;;;15.13;2.45;;;;;;;1.30;100.00;102580.03;9857565;30;20078;-90
2022/01/21 13:52:45;;;;;;;15.48;2.30;;;;;;;5.26;100.00;103032.84;9823996;30;20086;-86
2022/01/21 13:57:46;;;;;;;17.75;2.40;;;;;;;3.91;100.00;102850.84;9848306;30;20054;-85
2022/01/21 14:03:02;;;;;;;13.98;2.00;;;;;;;3.62;100.00;102805.72;9825094;30;20044;-83
2022/01/21 14:08:09;;;;;;;19.27;2.53;;;;;;;1.83;100.00;102542.22;9840167;30;20056;-84
2022/01/21 14:13:10;;;;;;;21.85;2.60;;;;;;;3.49;100.00;102886.97;9826164;30;20048;-92
2022/01/21 14:18:14;;;;;;;24.65;2.38;;;;;;;2.95;100.00;102810.81;9841242;30;20048;-88
2022/01/21 14:23:25;;;;;;;20.27;2.40;;;;;;;1.63;100.00;102460.91;9825290;30;20101;-88
2022/01/21 14:28:51;;;;;;;21.67;3.70;;;;;;;-0.32;100.00;102120.88;9818413;30;20424;-92
2022/01/21 14:33:51;;;;;;;18.77;3.90;;;;;;;-0.01;100.00;102312.75;9819556;30;20051;-91
2022/01/21 14:39:10;;;;;;;17.70;3.13;;;;;;;1.09;100.00;102565.84;9834212;30;20557;-92
2022/01/21 14:44:12;;;;;;;18.30;3.03;;;;;;;2.04;100.00;102534.59;9847250;30;20051;-89
2022/01/21 14:49:13;;;;;;;25.48;5.22;;;;;;;0.93;100.00;102486.00;9815693;30;20047;-89
2022/01/21 14:54:18;;;;;;;23.40;3.65;;;;;;;2.08;100.00;102546.84;9848051;30;20117;-88
2022/01/21 14:59:18;;;;;;;19.98;3.50;;;;;;;-0.62;100.00;102186.94;9833948;30;20138;-91
2022/01/21 15:04:19;;;;;;;13.88;2.80;;;;;;;3.10;100.00;102805.69;9831025;30;20100;-88
2022/01/21 15:09:29;;;;;;;17.55;4.72;;;;;;;4.39;100.00;102893.00;9831190;30;20078;-89
2022/01/21 15:14:43;;;;;;;19.00;2.97;;;;;;;0.89;100.00;102403.25;9802400;30;20063;-89
2022/01/21 15:19:45;;;;;;;31.02;4.55;;;;;;;2.61;100.00;102656.53;9813054;30;20054;-89
2022/01/21 15:24:46;;;;;;;20.48;2.75;;;;;;;2.17;100.00;102678.19;9838803;30;20043;-90
2022/01/21 15:29:47;;;;;;;24.90;3.20;;;;;;;1.53;100.00;102473.72;9816990;30;20056;-89
2022/01/21 15:34:48;;;;;;;18.77;4.55;;;;;;;1.42;100.00;102432.22;9826699;30;20106;-88
2022/01/21 15:39:48;;;;;;;16.83;2.22;;;;;;;3.84;100.00;102763.44;9809413;30;20124;-85
2022/01/21 15:44:49;;;;;;;14.95;2.15;;;;;;;1.45;100.00;102370.50;9829909;30;20052;-90
2022/01/21 15:49:49;;;;;;;12.27;2.03;;;;;;;2.52;100.00;102679.22;9809755;30;20032;-88
2022/01/21 15:54:50;;;;;;;8.60;1.20;;;;;;;2.67;100.00;102687.66;9810052;30;20048;-90
2022/01/21 15:59:51;;;;;;;6.63;1.20;;;;;;;2.52;100.00;102669.22;9810208;30;20036;-86
2022/01/21 16:04:51;;;;;;;8.80;1.33;;;;;;;2.88;100.00;102676.44;9820191;30;20040;-87
2022/01/21 16:09:52;;;;;;;9.63;2.88;;;;;;;0.77;100.00;102426.16;9795476;30;20040;-85
2022/01/21 16:14:53;;;;;;;10.63;2.80;;;;;;;3.09;100.00;102764.00;9830690;30;20458;-87
2022/01/21 16:19:53;;;;;;;12.13;1.17;;;;;;;-0.88;100.00;102087.56;9859594;30;20127;-87
2022/01/21 16:24:54;;;;;;;17.55;2.38;;;;;;;0.92;100.00;102413.78;9810339;30;20040;-87
2022/01/21 16:29:54;;;;;;;6.60;1.05;;;;;;;4.88;100.00;102964.13;9835010;30;20060;-87
2022/01/21 16:34:55;;;;;;;12.68;1.65;;;;;;;3.95;100.00;102828.56;9830242;30;20048;-88
2022/01/21 16:39:59;;;;;;;7.22;1.33;;;;;;;1.40;100.00;102536.53;9858578;30;20135;-89
2022/01/21 16:45:01;;;;;;;11.32;1.85;;;;;;;4.02;100.00;102925.00;9817772;30;20040;-87
2022/01/21 16:50:02;;;;;;;8.18;1.38;;;;;;;0.64;100.00;102366.00;9833348;30;20036;-88
2022/01/21 16:55:03;;;;;;;11.50;1.10;;;;;;;2.16;100.00;102544.22;9813622;30;20126;-88
2022/01/21 17:00:06;;;;;;;12.10;1.23;;;;;;;3.71;100.00;102848.34;9829144;30;20059;-89
2022/01/21 17:05:06;;;;;;;13.48;2.05;;;;;;;1.96;100.00;102531.81;9858133;30;20114;-88
2022/01/21 17:10:07;;;;;;;7.85;1.23;;;;;;;3.97;100.00;102872.88;9814242;30;20456;-89
2022/01/21 17:15:09;;;;;;;12.32;1.60;;;;;;;3.48;100.00;102879.84;9815115;30;20042;-89
2022/01/21 17:20:10;;;;;;;16.13;1.63;;;;;;;1.19;100.00;102490.69;9813904;30;20039;-88
2022/01/21 17:25:10;;;;;;;9.85;1.85;;;;;;;1.05;100.00;102432.38;9820943;30;20075;-89
2022/01/21 17:30:11;;;;;;;9.88;2.47;;;;;;;1.90;100.00;102565.03;9806725;30;20091;-89
2022/01/21 17:35:12;;;;;;;4.72;1.63;;;;;;;1.19;100.00;102403.88;9807344;30;20125;-89
2022/01/21 17:40:13;;;;;;;11.20;1.75;;;;;;;4.11;100.00;102860.47;9806390;30;20094;-89
2022/01/21 17:45:21;;;;;;;14.52;2.30;;;;;;;1.95;100.00;102552.69;9827988;30;20048;-89
2022/01/21 17:50:25;;;;;;;21.13;1.85;;;;;;;2.80;100.00;102622.84;9811701;30;20040;-88
2022/01/21 17:55:25;;;;;;;13.38;1.52;;;;;;;2.95;100.00;102712.88;9825714;30;20193;-90
2022/01/21 18:00:27;;;;;;;9.15;2.13;;;;;;;3.97;100.00;102877.44;9829274;30;20082;-90
2022/01/21 18:05:28;;;;;;;9.60;2.30;;;;;;;0.22;100.00;102298.81;9828945;30;20050;-90
2022/01/21 18:10:40;;;;;;;12.18;2.53;;;;;;;1.79;100.00;102601.44;9824705;30;20063;-90
2022/01/21 18:15:40;;;;;;;9.48;2.28;;;;;;;0.34;100.00;102327.41;9820257;30;20417;-90
2022/01/21 18:20:41;;;;;;;15.88;3.90;;;;;;;0.26;100.00;102235.22;9817990;30;20055;-88
2022/01/21 18:25:41;;;;;;;13.98;2.17;;;;;;;0.23;100.00;102368.22;9811007;30;20056;-90
2022/01/21 18:30:44;;;;;;;11.75;3.33;;;;;;;1.31;100.00;102565.44;9817384;30;20071;-89
2022/01/21 18:35:45;;;;;;;20.77;4.75;;;;;;;2.09;100.00;102558.56;9822594;30;20056;-89
2022/01/21 18:40:45;;;;;;;14.70;2.88;;;;;;;1.98;100.00;102578.69;9812553;30;20051;-90
2022/01/21 18:45:51;;;;;;;27.98;3.85;;;;;;;1.88;100.00;102702.84;9818237;30;20048;-89
2022/01/21 18:50:52;;;;;;;22.70;3.63;;;;;;;1.84;100.00;102549.34;9825832;30;20405;-88
2022/01/21 18:55:53;;;;;;;14.15;2.50;;;;;;;2.60;100.00;102635.78;9841103;30;20044;-89
2022/01/21 19:00:53;;;;;;;25.70;5.03;;;;;;;0.04;100.00;102326.69;9839844;30;20079;-90
2022/01/21 19:05:55;;;;;;;24.83;4.95;;;;;;;-0.75;100.00;102273.81;9809935;30;20502;-89
2022/01/21 19:10:56;;;;;;;30.02;4.40;;;;;;;1.41;100.00;102522.81;9827415;30;20063;-89
2022/01/21 19:15:57;;;;;;;17.25;4.30;;;;;;;2.46;100.00;102610.03;9828378;30;20504;-88
2022/01/21 19:20:57;;;;;;;25.15;3.35;;;;;;;3.57;100.00;102881.59;9806788;30;20086;-87
2022/01/21 19:26:00;;;;;;;29.70;4.43;;;;;;;1.79;100.00;102564.25;9815874;30;20055;-89
2022/01/21 19:31:04;;;;;;;31.73;5.32;;;;;;;1.62;100.00;102513.53;9818004;30;20088;-88
2022/01/21 19:36:05;;;;;;;26.80;4.30;;;;;;;2.48;100.00;102711.31;9823453;30;20123;-88
2022/01/21 19:41:06;;;;;;;29.63;5.10;;;;;;;3.80;100.00;102885.53;9836500;30;20498;-88
2022/01/21 19:46:11;;;;;;;38.30;5.00;;;;;;;4.64;100.00;103023.03;9839762;30;20044;-87
2022/01/21 19:51:13;;;;;;;28.35;4.38;;;;;;;0.17;100.00;102438.25;9859486;30;20036;-89
2022/01/21 19:56:15;;;;;;;17.50;3.42;;;;;;;4.62;100.00;103030.53;9830935;30;20048;-90
2022/01/21 20:01:35;;;;;;;27.20;4.30;;;;;;;3.73;100.00;103126.06;9831551;30;20052;-90
2022/01/21 20:12:03;;;;;;;22.90;3.50;;;;;;;3.19;100.00;102789.25;9831267;30;20043;-90
2022/01/21 20:17:07;;;;;;;31.52;3.83;;;;;;;-0.79;100.00;102317.53;9852000;30;20043;-90
2022/01/21 20:22:08;;;;;;;48.67;4.25;;;;;;;4.69;100.00;103166.31;9816025;30;20036;-91
2022/01/21 20:27:09;;;;;;;20.05;3.28;;;;;;;3.85;100.00;102885.03;9830021;30;20039;-89
2022/01/21 20:32:19;;;;;;;17.85;3.20;;;;;;;2.63;100.00;102900.09;9845757;30;20058;-90
2022/01/21 20:37:23;;;;;;;31.15;6.40;;;;;;;3.24;100.00;102805.09;9832363;30;20051;-89
2022/01/21 20:42:24;;;;;;;31.00;4.07;;;;;;;-2.10;100.00;101916.56;9830459;30;20046;-90
2022/01/21 20:47:24;;;;;;;23.48;3.65;;;;;;;2.77;100.00;102710.19;9828542;30;20126;-90
2022/01/21 20:52:25;;;;;;;29.63;4.28;;;;;;;2.75;100.00;102688.59;9829921;30;20119;-91
2022/01/21 20:57:29;;;;;;;33.42;3.75;;;;;;;4.79;100.00;102970.56;9815814;30;20046;-93
2022/01/21 21:02:42;;;;;;;;;;;;;;;;;;;;;
2022/01/21 21:07:45;;;;;;;32.53;5.32;;;;;;;-1.85;100.00;102044.63;9846884;30;20071;-93
2022/01/21 21:12:59;;;;;;;30.23;5.75;;;;;;;-0.96;100.00;102083.91;9833785;30;20050;-94
2022/01/21 21:18:16;;;;;;;27.25;4.97;;;;;;;-0.30;100.00;102316.41;9830339;30;20107;-91
2022/01/21 21:24:28;;;;;;;27.77;4.63;;;;;;;-1.34;100.00;102010.13;9833953;30;20040;-93
2022/01/21 22:26:11;;;;;;;23.02;4.10;;;;;;;1.41;100.00;102432.41;9859260;30;20667;-90
2022/01/21 22:52:10;;;;;;;47.10;8.60;;;;;;;3.47;100.00;102951.66;9826660;30;20130;-91
2022/01/21 23:02:37;;;;;;;48.40;7.57;;;;;;;0.83;100.00;102402.97;9869522;30;20292;-90
2022/01/21 23:07:38;;;;;;;42.05;5.47;;;;;;;2.34;100.00;102600.41;9814653;30;20446;-91
2022/01/21 23:12:39;;;;;;;38.90;7.03;;;;;;;-0.38;100.00;102172.03;9847400;30;20059;-90
2022/01/21 23:17:43;;;;;;;31.95;5.25;;;;;;;3.70;100.00;102805.78;9819218;30;20105;-91
2022/01/21 23:22:44;;;;;;;23.92;4.10;;;;;;;0.02;100.00;102328.69;9847264;30;20118;-89
2022/01/21 23:27:51;;;;;;;43.42;7.22;;;;;;;2.09;100.00;102521.41;9844712;30;20151;-89
2022/01/21 23:32:53;;;;;;;24.98;5.95;;;;;;;2.13;100.00;102554.53;9849166;30;20060;-90
2022/01/21 23:43:09;;;;;;;22.60;3.97;;;;;;;2.81;100.00;102711.56;9824931;30;20101;-90
2022/01/21 23:48:11;;;;;;;32.63;3.97;;;;;;;0.64;100.00;102357.88;9824691;30;20043;-89
2022/01/21 23:53:11;;;;;;;31.85;4.35;;;;;;;1.67;100.00;102537.50;9831539;30;20032;-89
2022/01/21 23:58:12;;;;;;;19.73;3.20;;;;;;;1.62;100.00;102508.09;9816164;30;20477;-90
